This is the latest recevied weather packets stored in our database for station/object SV4JYD-14. If no packets are shown the sender has not sent any weather packets the latest 10 day(s).
| Time | Temp. | Humidity | Pressure | Rain* | Wind** | Luminosity | Snow |
|---|---|---|---|---|---|---|---|
| 1777308655 | 20.56° C | 46% | 1016 hPa | 0 mm | - | - | - |
| 1777307755 | 20.56° C | 46% | 1016 hPa | 0 mm | - | - | - |
| 1777306855 | 20.56° C | 48% | 1016 hPa | 0 mm | - | - | - |
| 1777305954 | 21.67° C | 43% | 1016 hPa | 0 mm | - | - | - |
| 1777304154 | 21.67° C | 43% | 1016 hPa | 0 mm | - | - | - |
| 1777303254 | 21.11° C | 50% | 1016 hPa | 0 mm | - | - | - |
| 1777300553 | 21.67° C | 44% | 1016 hPa | 0 mm | - | - | - |
| 1777299653 | 22.78° C | 41% | 1016 hPa | 0 mm | - | - | - |
| 1777298752 | 22.78° C | 40% | 1016 hPa | 0 mm | - | - | - |
| 1777298148 | 22.78° C | 41% | 1016 hPa | 0 mm | - | - | - |
| 1777296348 | 22.78° C | 43% | 1017 hPa | 0 mm | - | - | - |
| 1777295448 | 22.78° C | 42% | 1017 hPa | 0 mm | - | - | - |
| 1777292747 | 22.78° C | 46% | 1017 hPa | 0 mm | - | - | - |
| 1777291847 | 22.78° C | 47% | 1017 hPa | 0 mm | - | - | - |
| 1777290947 | 22.22° C | 50% | 1017 hPa | 0 mm | - | - | - |
| 1777288246 | 22.22° C | 50% | 1018 hPa | 0 mm | - | - | - |
| 1777286445 | 22.22° C | 50% | 1018 hPa | 0 mm | - | - | - |
| 1777285545 | 22.22° C | 50% | 1018 hPa | 0 mm | - | - | - |
| 1777284645 | 21.67° C | 50% | 1018 hPa | 0 mm | - | - | - |
| 1777281944 | 21.11° C | 51% | 1018 hPa | 0 mm | - | - | - |
| 1777281044 | 21.11° C | 50% | 1018 hPa | 0 mm | - | - | - |
| 1777280143 | 20.56° C | 53% | 1018 hPa | 0 mm | - | - | - |
| 1777279243 | 20.56° C | 52% | 1018 hPa | 0 mm | - | - | - |
| 1777278343 | 20.56° C | 52% | 1018 hPa | 0 mm | - | - | - |
| 1777277443 | 20.56° C | 49% | 1018 hPa | 0 mm | - | - | - |
* Rain latest hour (hover to see other rain measurements)
** Current wind speed in m/s (hover to see current wind gust speed)